createdAt,value
2018-11-26T00:00:36.833Z,9.50
2018-11-26T00:03:13.589Z,9.80
2018-11-26T00:05:43.688Z,8.80
2018-11-26T00:08:14.067Z,8.80
2018-11-26T00:10:54.080Z,8.60
2018-11-26T00:13:24.075Z,8.50
2018-11-26T00:15:52.793Z,9.10
2018-11-26T00:18:22.168Z,8.90
2018-11-26T00:20:51.348Z,10.00
2018-11-26T00:23:21.243Z,9.90
2018-11-26T00:25:49.976Z,9.60
2018-11-26T00:28:19.389Z,9.30
2018-11-26T00:30:50.295Z,9.20
2018-11-26T00:33:19.429Z,9.50
2018-11-26T00:35:48.726Z,9.70
2018-11-26T00:38:18.164Z,9.90
2018-11-26T00:40:46.897Z,10.30
2018-11-26T00:43:15.595Z,10.50
2018-11-26T00:45:44.234Z,10.20
2018-11-26T00:48:13.368Z,10.30
2018-11-26T00:50:42.021Z,10.40
2018-11-26T00:53:10.700Z,9.00
2018-11-26T00:55:39.870Z,9.00
2018-11-26T00:58:08.570Z,9.30
2018-11-26T01:00:37.229Z,8.90
2018-11-26T01:03:06.154Z,9.40
2018-11-26T01:05:39.980Z,9.60
2018-11-26T01:08:08.768Z,9.70
2018-11-26T01:10:37.524Z,10.20
2018-11-26T01:13:06.885Z,9.50
2018-11-26T01:15:35.563Z,9.80
2018-11-26T01:18:05.047Z,9.50
2018-11-26T01:20:33.760Z,9.40
2018-11-26T01:23:04.476Z,9.30
2018-11-26T01:25:33.171Z,9.00
2018-11-26T01:28:02.204Z,8.90
2018-11-26T01:30:30.888Z,8.90
2018-11-26T01:33:00.292Z,9.10
2018-11-26T01:35:28.948Z,8.40
2018-11-26T01:37:57.633Z,9.50
2018-11-26T01:40:32.099Z,10.00
2018-11-26T01:43:01.464Z,9.60
2018-11-26T01:45:31.953Z,9.70
2018-11-26T01:48:01.228Z,9.10
2018-11-26T01:50:30.536Z,9.70
2018-11-26T01:53:00.376Z,10.50
2018-11-26T01:55:29.867Z,10.50
2018-11-26T01:57:58.660Z,10.70
2018-11-26T02:00:29.243Z,9.90
2018-11-26T02:02:59.083Z,9.90
2018-11-26T02:05:28.539Z,9.30
2018-11-26T02:07:57.183Z,8.70
2018-11-26T02:10:26.388Z,8.30
2018-11-26T02:12:55.770Z,8.70
2018-11-26T02:15:41.668Z,8.60
2018-11-26T02:18:10.868Z,8.50
2018-11-26T02:20:39.595Z,10.00
2018-11-26T02:23:10.257Z,10.10
2018-11-26T02:25:40.273Z,10.00
2018-11-26T02:28:10.146Z,9.90
2018-11-26T02:30:39.910Z,9.90
2018-11-26T02:33:09.228Z,9.90
2018-11-26T02:35:37.948Z,10.30
2018-11-26T02:38:07.493Z,10.10
2018-11-26T02:40:36.206Z,9.20
2018-11-26T02:43:05.008Z,8.90
2018-11-26T02:45:33.683Z,9.60
2018-11-26T02:48:02.319Z,9.90
2018-11-26T02:50:31.614Z,10.50
2018-11-26T02:53:00.277Z,10.70
2018-11-26T02:55:28.960Z,10.10
2018-11-26T02:57:57.633Z,10.00
2018-11-26T03:00:27.554Z,9.40
2018-11-26T03:02:56.220Z,9.50
2018-11-26T03:05:28.391Z,9.50
2018-11-26T03:07:57.095Z,9.70
2018-11-26T03:10:25.828Z,10.40
2018-11-26T03:12:54.519Z,10.50
2018-11-26T03:15:23.188Z,9.70
2018-11-26T03:17:51.876Z,10.20
2018-11-26T03:20:20.559Z,10.70
2018-11-26T03:22:49.292Z,10.90
2018-11-26T03:25:18.474Z,10.60
2018-11-26T03:27:47.164Z,9.90
2018-11-26T03:30:19.232Z,10.40
2018-11-26T03:32:47.924Z,10.50
2018-11-26T03:35:16.585Z,11.10
2018-11-26T03:37:45.308Z,10.40
2018-11-26T03:40:14.660Z,10.90
2018-11-26T03:42:44.909Z,9.60
2018-11-26T03:45:14.922Z,10.00
2018-11-26T03:47:44.359Z,9.80
2018-11-26T03:50:14.452Z,10.90
2018-11-26T03:52:44.051Z,10.90
2018-11-26T03:55:13.264Z,10.90
2018-11-26T03:57:42.731Z,10.20
2018-11-26T04:00:15.564Z,10.10
2018-11-26T04:02:45.080Z,10.30
2018-11-26T04:05:14.547Z,10.60
2018-11-26T04:07:43.780Z,10.10
2018-11-26T04:10:13.362Z,10.90
2018-11-26T04:12:43.261Z,11.10
2018-11-26T04:15:13.279Z,10.30
2018-11-26T04:17:42.629Z,10.60
2018-11-26T04:20:11.331Z,10.90
2018-11-26T04:22:41.167Z,11.30
2018-11-26T04:25:10.824Z,11.00
2018-11-26T04:27:39.600Z,10.20
2018-11-26T04:30:10.831Z,10.60
2018-11-26T04:32:40.356Z,11.00
2018-11-26T04:35:10.111Z,10.30
2018-11-26T04:37:39.973Z,10.10
2018-11-26T04:40:10.973Z,9.40
2018-11-26T04:42:39.709Z,9.70
2018-11-26T04:45:09.817Z,9.60
2018-11-26T04:47:38.946Z,9.70
2018-11-26T04:50:09.506Z,9.40
2018-11-26T04:52:38.252Z,9.40
2018-11-26T04:55:07.772Z,8.60
2018-11-26T04:57:42.100Z,9.20
2018-11-26T05:00:07.526Z,9.40
2018-11-26T05:02:36.197Z,9.70
2018-11-26T05:05:05.408Z,10.00
2018-11-26T05:07:34.064Z,9.80
2018-11-26T05:10:03.033Z,9.50
2018-11-26T05:12:33.031Z,9.10
2018-11-26T05:15:01.737Z,9.20
2018-11-26T05:17:30.393Z,8.90
2018-11-26T05:19:59.127Z,9.00
2018-11-26T05:22:28.498Z,9.20
2018-11-26T05:24:57.685Z,9.60
2018-11-26T05:27:26.335Z,10.20
2018-11-26T05:29:55.685Z,9.40
2018-11-26T05:32:24.960Z,8.40
2018-11-26T05:34:53.632Z,8.60
2018-11-26T05:37:22.752Z,8.70
2018-11-26T05:39:51.439Z,9.70
2018-11-26T05:42:21.211Z,10.20
2018-11-26T05:44:50.240Z,9.80
2018-11-26T05:47:18.877Z,10.00
2018-11-26T05:49:48.249Z,10.40
2018-11-26T05:52:16.948Z,10.80
2018-11-26T05:54:45.600Z,10.70
2018-11-26T05:57:14.316Z,10.90
2018-11-26T05:59:42.960Z,10.70
2018-11-26T06:02:11.676Z,11.10
2018-11-26T06:04:40.825Z,11.20
2018-11-26T06:07:10.127Z,11.00
2018-11-26T06:09:38.797Z,10.50
2018-11-26T06:12:07.492Z,10.40
2018-11-26T06:14:36.161Z,10.40
2018-11-26T06:17:05.315Z,9.80
2018-11-26T06:19:34.439Z,10.20
2018-11-26T06:22:03.143Z,10.50
2018-11-26T06:24:33.060Z,9.80
2018-11-26T06:27:01.784Z,9.40
2018-11-26T06:29:30.440Z,9.30
2018-11-26T06:31:59.949Z,9.30
2018-11-26T06:34:28.630Z,9.90
2018-11-26T06:36:57.332Z,9.40
2018-11-26T06:39:26.049Z,10.70
2018-11-26T06:41:55.232Z,10.70
2018-11-26T06:44:23.947Z,11.00
2018-11-26T06:46:52.720Z,11.40
2018-11-26T06:49:22.180Z,11.30
2018-11-26T06:51:50.864Z,11.40
2018-11-26T06:54:19.576Z,11.30
2018-11-26T06:56:48.287Z,11.40
2018-11-26T06:59:16.918Z,11.40
2018-11-26T07:01:45.588Z,11.60
2018-11-26T07:04:14.221Z,11.30
2018-11-26T07:06:42.877Z,11.70
2018-11-26T07:09:12.525Z,11.90
2018-11-26T07:11:41.205Z,11.50
2018-11-26T07:14:09.921Z,11.70
2018-11-26T07:16:38.597Z,11.90
2018-11-26T07:19:07.310Z,11.70
2018-11-26T07:21:36.629Z,11.60
2018-11-26T07:24:06.677Z,11.80
2018-11-26T07:26:36.264Z,11.60
2018-11-26T07:29:05.739Z,10.60
2018-11-26T07:31:34.455Z,10.80
2018-11-26T07:34:03.618Z,11.00
2018-11-26T07:36:33.201Z,10.60
2018-11-26T07:39:02.525Z,10.70
2018-11-26T07:41:31.294Z,10.70
2018-11-26T07:44:00.893Z,10.80
2018-11-26T07:46:30.903Z,10.50
2018-11-26T07:49:00.796Z,10.90
2018-11-26T07:51:29.565Z,10.30
2018-11-26T07:53:58.272Z,10.00
2018-11-26T07:56:27.632Z,9.90
2018-11-26T07:58:57.572Z,9.90
2018-11-26T08:01:26.299Z,10.50
2018-11-26T08:03:55.092Z,9.80
2018-11-26T08:06:23.813Z,10.60
2018-11-26T08:08:53.116Z,10.40
2018-11-26T08:11:21.844Z,11.20
2018-11-26T08:13:51.224Z,11.20
2018-11-26T08:16:19.916Z,10.80
2018-11-26T08:18:50.176Z,10.10
2018-11-26T08:21:18.885Z,10.20
2018-11-26T08:23:47.571Z,9.70
2018-11-26T08:26:17.421Z,9.70
2018-11-26T08:28:46.089Z,10.20
2018-11-26T08:31:15.512Z,9.10
2018-11-26T08:33:45.401Z,9.30
2018-11-26T08:36:16.044Z,9.60
2018-11-26T08:38:47.531Z,8.80
2018-11-26T08:41:18.936Z,9.50
2018-11-26T08:43:57.067Z,9.80
2018-11-26T08:46:31.689Z,10.00
2018-11-26T08:49:02.470Z,9.70
2018-11-26T08:51:31.425Z,9.60
2018-11-26T08:54:00.113Z,8.80
2018-11-26T08:56:28.817Z,8.70
2018-11-26T08:58:58.751Z,8.40
2018-11-26T09:01:33.801Z,8.80
2018-11-26T09:04:05.163Z,9.20
2018-11-26T09:06:33.848Z,9.00
2018-11-26T09:09:04.138Z,8.70
2018-11-26T09:11:33.715Z,9.10
2018-11-26T09:14:03.197Z,9.20
2018-11-26T09:16:32.541Z,9.10
2018-11-26T09:19:02.048Z,9.20
2018-11-26T09:21:32.056Z,8.90
2018-11-26T09:24:00.810Z,9.10
2018-11-26T09:26:29.501Z,9.60
2018-11-26T09:28:58.212Z,10.00
2018-11-26T09:31:26.924Z,10.30
2018-11-26T09:33:55.764Z,10.40
2018-11-26T09:36:25.077Z,10.10
2018-11-26T09:38:54.583Z,9.80
2018-11-26T09:41:23.820Z,9.70
2018-11-26T09:43:53.749Z,9.50
2018-11-26T09:46:23.828Z,9.10
2018-11-26T09:48:53.221Z,9.50
2018-11-26T09:51:21.879Z,9.80
2018-11-26T09:53:52.388Z,10.10
2018-11-26T09:56:21.096Z,9.60
2018-11-26T09:58:51.004Z,9.50
2018-11-26T10:01:19.742Z,9.30
2018-11-26T10:03:48.444Z,9.90
2018-11-26T10:06:17.724Z,10.00
2018-11-26T10:08:46.416Z,10.50
2018-11-26T10:11:15.076Z,10.50
2018-11-26T10:13:44.271Z,9.50
2018-11-26T10:16:12.940Z,9.80
2018-11-26T10:18:41.649Z,9.80
2018-11-26T10:21:10.313Z,10.40
2018-11-26T10:23:39.495Z,10.80
2018-11-26T10:26:08.228Z,10.50
2018-11-26T10:28:36.882Z,10.00
2018-11-26T10:31:05.612Z,10.00
2018-11-26T10:33:34.256Z,10.00
2018-11-26T10:36:03.535Z,10.50
2018-11-26T10:38:33.131Z,10.80
2018-11-26T10:41:03.069Z,10.70
2018-11-26T10:43:32.677Z,11.10
2018-11-26T10:46:03.168Z,11.40
2018-11-26T10:48:32.435Z,11.90
2018-11-26T10:51:01.168Z,10.70
2018-11-26T10:53:30.391Z,10.10
2018-11-26T10:55:59.116Z,10.20
2018-11-26T10:58:28.349Z,10.10
2018-11-26T11:01:02.122Z,10.30
2018-11-26T11:03:30.876Z,9.60
2018-11-26T11:05:59.654Z,9.70
2018-11-26T11:08:28.340Z,10.00
2018-11-26T11:10:57.028Z,10.40
2018-11-26T11:13:26.585Z,10.60
2018-11-26T11:15:55.908Z,11.30
2018-11-26T11:18:24.568Z,10.90
2018-11-26T11:20:53.933Z,10.50
2018-11-26T11:23:23.291Z,9.90
2018-11-26T11:25:52.008Z,9.40
2018-11-26T11:28:20.702Z,9.60
2018-11-26T11:30:50.162Z,9.40
2018-11-26T11:35:48.229Z,10.00
2018-11-26T11:38:18.669Z,9.20
2018-11-26T11:40:47.422Z,9.30
2018-11-26T11:43:16.096Z,10.20
2018-11-26T11:45:45.557Z,10.00
2018-11-26T11:48:14.208Z,10.20
2018-11-26T11:50:42.951Z,10.70
2018-11-26T11:53:11.636Z,9.70
2018-11-26T11:55:41.174Z,10.40
2018-11-26T11:58:09.889Z,10.20
2018-11-26T12:00:39.681Z,10.20
2018-11-26T12:03:14.466Z,10.30
2018-11-26T12:05:43.169Z,10.00
2018-11-26T12:08:12.370Z,10.10
2018-11-26T12:10:41.104Z,10.10
2018-11-26T12:13:11.028Z,10.90
2018-11-26T12:15:43.109Z,10.60
2018-11-26T12:18:13.101Z,10.80
2018-11-26T12:20:41.888Z,11.30
2018-11-26T12:23:10.641Z,10.80
2018-11-26T12:25:41.211Z,10.10
2018-11-26T12:28:09.954Z,10.30
2018-11-26T12:30:41.069Z,10.10
2018-11-26T12:33:10.500Z,10.60
2018-11-26T12:35:39.793Z,10.40
2018-11-26T12:38:08.805Z,10.20
2018-11-26T12:40:37.524Z,10.00
2018-11-26T12:43:07.713Z,10.60
2018-11-26T12:45:36.379Z,11.20
2018-11-26T12:48:05.266Z,11.30
2018-11-26T12:50:34.038Z,10.80
2018-11-26T12:53:04.186Z,11.00
2018-11-26T12:55:35.066Z,10.50
2018-11-26T12:58:05.106Z,10.00
2018-11-26T13:00:34.476Z,9.80
2018-11-26T13:03:05.453Z,9.60
2018-11-26T13:05:36.267Z,10.00
2018-11-26T13:08:04.996Z,10.70
2018-11-26T13:10:34.451Z,10.80
2018-11-26T13:13:05.165Z,10.40
2018-11-26T13:15:34.482Z,10.00
2018-11-26T13:18:05.022Z,10.30
2018-11-26T13:20:33.864Z,10.50
2018-11-26T13:23:03.104Z,10.70
2018-11-26T13:25:34.961Z,10.90
2018-11-26T13:28:04.366Z,10.50
2018-11-26T13:30:35.546Z,10.50
2018-11-26T13:33:07.338Z,9.50
2018-11-26T13:35:36.034Z,10.00
2018-11-26T13:38:05.413Z,10.30
2018-11-26T13:40:34.101Z,10.60
2018-11-26T13:43:04.290Z,11.20
2018-11-26T13:45:36.482Z,11.10
2018-11-26T13:48:07.034Z,10.10
2018-11-26T13:50:39.990Z,10.40
2018-11-26T13:53:10.690Z,9.60
2018-11-26T13:55:40.758Z,9.00
2018-11-26T13:58:10.094Z,9.10
2018-11-26T14:00:41.393Z,9.50
2018-11-26T14:03:10.755Z,9.30
2018-11-26T14:05:40.693Z,9.70
2018-11-26T14:08:10.509Z,9.20
2018-11-26T14:10:39.840Z,9.80
2018-11-26T14:13:10.360Z,9.80
2018-11-26T14:15:40.014Z,10.40
2018-11-26T14:18:10.030Z,10.30
2018-11-26T14:20:38.782Z,9.00
2018-11-26T14:23:07.941Z,9.40
2018-11-26T14:25:37.666Z,9.40
2018-11-26T14:28:06.413Z,10.40
2018-11-26T14:30:35.205Z,10.50
2018-11-26T14:33:04.523Z,9.80
2018-11-26T14:35:34.454Z,9.90
2018-11-26T14:38:06.660Z,10.20
2018-11-26T14:40:41.774Z,8.90
2018-11-26T14:43:11.074Z,9.00
2018-11-26T14:45:41.626Z,8.50
2018-11-26T14:48:11.106Z,8.90
2018-11-26T14:50:40.746Z,9.40
2018-11-26T14:53:11.198Z,9.50
2018-11-26T14:55:40.587Z,9.30
2018-11-26T14:58:10.595Z,10.00
2018-11-26T15:00:40.600Z,10.00
2018-11-26T15:03:09.520Z,10.80
2018-11-26T15:05:39.003Z,10.30
2018-11-26T15:08:14.897Z,9.70
2018-11-26T15:10:44.882Z,9.50
2018-11-26T15:13:15.742Z,9.40
2018-11-26T15:15:45.657Z,9.00
2018-11-26T15:18:14.913Z,9.20
2018-11-26T15:20:43.593Z,8.60
2018-11-26T15:23:13.406Z,8.30
2018-11-26T15:25:42.089Z,8.70
2018-11-26T15:28:15.058Z,8.40
2018-11-26T15:30:44.387Z,8.50
2018-11-26T15:33:13.732Z,8.20
2018-11-26T15:35:42.468Z,8.50
2018-11-26T15:38:11.741Z,8.40
2018-11-26T15:40:40.417Z,9.00
2018-11-26T15:43:11.269Z,8.90
2018-11-26T15:45:41.046Z,8.70
2018-11-26T15:48:11.310Z,8.50
2018-11-26T15:50:41.071Z,8.50
2018-11-26T15:53:11.894Z,9.20
2018-11-26T15:55:42.145Z,8.60
2018-11-26T15:58:11.630Z,8.10
2018-11-26T16:00:41.544Z,8.00
2018-11-26T16:03:10.276Z,7.80
2018-11-26T16:05:40.470Z,8.10
2018-11-26T16:08:11.750Z,8.00
2018-11-26T16:10:42.281Z,8.00
2018-11-26T16:13:12.889Z,7.70
2018-11-26T16:15:44.205Z,8.50
2018-11-26T16:18:16.915Z,7.70
2018-11-26T16:20:47.380Z,7.50
2018-11-26T16:23:16.581Z,8.60
2018-11-26T16:25:47.294Z,7.60
2018-11-26T16:28:18.689Z,7.70
2018-11-26T16:30:48.749Z,8.00
2018-11-26T16:33:18.397Z,7.40
2018-11-26T16:35:47.082Z,7.50
2018-11-26T16:38:16.650Z,7.80
2018-11-26T16:40:46.042Z,7.80
2018-11-26T16:43:15.315Z,9.10
2018-11-26T16:45:44.650Z,9.00
2018-11-26T16:48:13.393Z,9.50
2018-11-26T16:50:42.645Z,8.50
2018-11-26T16:53:11.350Z,7.60
2018-11-26T16:55:40.779Z,8.10
2018-11-26T16:58:10.110Z,8.10
2018-11-26T17:00:38.769Z,7.90
2018-11-26T17:03:07.488Z,8.20
2018-11-26T17:05:40.849Z,8.70
2018-11-26T17:08:12.421Z,8.60
2018-11-26T17:10:42.181Z,7.90
2018-11-26T17:13:14.704Z,8.60
2018-11-26T17:15:43.461Z,9.60
2018-11-26T17:18:12.714Z,8.70
2018-11-26T17:20:41.410Z,8.00
2018-11-26T17:23:10.114Z,7.70
2018-11-26T17:25:41.111Z,8.20
2018-11-26T17:28:09.829Z,8.30
2018-11-26T17:30:39.575Z,8.30
2018-11-26T17:33:10.521Z,9.10
2018-11-26T17:35:39.904Z,8.20
2018-11-26T17:38:10.637Z,7.60
2018-11-26T17:40:40.321Z,7.30
2018-11-26T17:43:10.817Z,8.20
2018-11-26T17:45:39.489Z,8.50
2018-11-26T17:48:08.932Z,8.80
2018-11-26T17:50:40.059Z,8.40
2018-11-26T17:53:13.421Z,7.40
2018-11-26T17:55:54.216Z,7.90
2018-11-26T17:58:26.140Z,6.80
2018-11-26T18:00:59.045Z,7.80
2018-11-26T18:03:28.369Z,7.80
2018-11-26T18:05:57.069Z,7.90
2018-11-26T18:08:25.901Z,7.90
2018-11-26T18:10:54.597Z,7.60
2018-11-26T18:13:23.232Z,8.00
2018-11-26T18:15:51.946Z,7.80
2018-11-26T18:18:21.325Z,7.30
2018-11-26T18:20:50.033Z,6.80
2018-11-26T18:23:18.709Z,8.10
2018-11-26T18:25:47.577Z,7.90
2018-11-26T18:28:17.589Z,7.70
2018-11-26T18:30:47.697Z,7.80
2018-11-26T18:33:16.927Z,8.60
2018-11-26T18:35:49.322Z,9.20
2018-11-26T18:38:18.145Z,8.10
2018-11-26T18:40:49.425Z,7.10
2018-11-26T18:43:19.529Z,7.30
2018-11-26T18:45:48.785Z,8.30
2018-11-26T18:48:17.474Z,8.10
2018-11-26T18:50:47.116Z,8.00
2018-11-26T18:53:15.795Z,7.20
2018-11-26T18:55:45.710Z,6.90
2018-11-26T18:58:15.637Z,8.40
2018-11-26T19:00:48.926Z,7.00
2018-11-26T19:03:19.043Z,7.00
2018-11-26T19:05:48.753Z,7.00
2018-11-26T19:08:19.277Z,7.40
2018-11-26T19:10:49.173Z,6.80
2018-11-26T19:13:21.947Z,7.90
2018-11-26T19:15:51.804Z,8.50
2018-11-26T19:18:22.730Z,8.20
2018-11-26T19:20:51.811Z,8.60
2018-11-26T19:23:21.414Z,8.80
2018-11-26T19:25:51.531Z,9.20
2018-11-26T19:28:21.314Z,10.00
2018-11-26T19:30:52.434Z,10.40
2018-11-26T19:33:21.117Z,9.50
2018-11-26T19:35:50.389Z,9.10
2018-11-26T19:38:19.624Z,8.40
2018-11-26T19:40:49.549Z,9.20
2018-11-26T19:43:18.241Z,8.90
2018-11-26T19:45:48.345Z,9.30
2018-11-26T19:48:18.841Z,9.60
2018-11-26T19:50:48.810Z,7.90
2018-11-26T19:53:18.140Z,8.40
2018-11-26T19:55:47.356Z,8.70
2018-11-26T19:58:16.558Z,9.30
2018-11-26T20:00:45.736Z,8.70
2018-11-26T20:03:18.018Z,7.40
2018-11-26T20:06:23.534Z,8.60
2018-11-26T20:08:56.641Z,8.70
2018-11-26T20:11:25.332Z,9.00
2018-11-26T20:13:54.017Z,9.10
2018-11-26T20:16:25.460Z,8.90
2018-11-26T20:18:54.117Z,9.30
2018-11-26T20:21:22.799Z,10.00
2018-11-26T20:23:51.493Z,9.80
2018-11-26T20:26:21.366Z,9.80
2018-11-26T20:28:50.049Z,10.40
2018-11-26T20:31:19.318Z,9.80
2018-11-26T20:33:48.926Z,8.10
2018-11-26T20:36:17.578Z,8.60
2018-11-26T20:38:47.000Z,9.70
2018-11-26T20:41:15.673Z,9.30
2018-11-26T20:43:44.961Z,10.20
2018-11-26T20:46:13.625Z,9.90
2018-11-26T20:48:42.512Z,9.80
2018-11-26T20:51:11.178Z,9.40
2018-11-26T20:53:40.471Z,9.10
2018-11-26T20:56:16.198Z,9.70
2018-11-26T20:58:45.606Z,9.50
2018-11-26T21:01:15.497Z,9.80
2018-11-26T21:03:45.322Z,10.50
2018-11-26T21:06:14.662Z,10.70
2018-11-26T21:08:44.145Z,10.70
2018-11-26T21:11:14.497Z,10.70
2018-11-26T21:13:45.162Z,10.80
2018-11-26T21:16:15.801Z,10.80
2018-11-26T21:18:46.004Z,11.00
2018-11-26T21:21:15.365Z,10.90
2018-11-26T21:23:46.098Z,10.00
2018-11-26T21:26:16.197Z,10.00
2018-11-26T21:28:46.849Z,10.50
2018-11-26T21:31:17.002Z,9.60
2018-11-26T21:33:45.829Z,9.60
2018-11-26T21:36:15.092Z,9.40
2018-11-26T21:38:45.060Z,9.50
2018-11-26T21:41:14.429Z,8.90
2018-11-26T21:43:43.657Z,9.80
2018-11-26T21:46:13.645Z,8.90
2018-11-26T21:48:42.310Z,9.40
2018-11-26T21:51:11.477Z,9.90
2018-11-26T21:53:41.257Z,10.40
2018-11-26T21:56:11.725Z,10.50
2018-11-26T21:58:41.083Z,10.90
2018-11-26T22:01:10.276Z,10.90
2018-11-26T22:03:40.397Z,11.00
2018-11-26T22:06:11.401Z,11.10
2018-11-26T22:08:40.073Z,11.10
2018-11-26T22:11:09.128Z,11.20
2018-11-26T22:13:39.496Z,11.20
2018-11-26T22:16:10.290Z,11.20
2018-11-26T22:18:39.526Z,11.10
2018-11-26T22:21:08.930Z,11.20
2018-11-26T22:23:40.112Z,11.10
2018-11-26T22:26:08.910Z,11.00
2018-11-26T22:28:38.224Z,11.00
2018-11-26T22:31:08.482Z,10.90
2018-11-26T22:33:37.187Z,10.90
2018-11-26T22:36:06.078Z,10.90
2018-11-26T22:38:34.793Z,10.80
2018-11-26T22:41:03.994Z,10.90
2018-11-26T22:43:34.270Z,11.00
2018-11-26T22:46:03.745Z,10.80
2018-11-26T22:48:34.461Z,10.70
2018-11-26T22:51:05.214Z,10.90
2018-11-26T22:53:34.973Z,10.90
2018-11-26T22:56:04.408Z,10.50
2018-11-26T22:58:33.809Z,10.70
2018-11-26T23:01:05.066Z,10.70
2018-11-26T23:03:34.917Z,10.70
2018-11-26T23:06:05.443Z,10.70
2018-11-26T23:08:34.677Z,10.70
2018-11-26T23:11:03.379Z,10.80
2018-11-26T23:13:32.839Z,10.80
2018-11-26T23:16:02.023Z,10.80
2018-11-26T23:18:31.293Z,10.80
2018-11-26T23:21:00.612Z,10.70
2018-11-26T23:23:30.973Z,10.70
2018-11-26T23:26:00.133Z,10.90
2018-11-26T23:28:29.358Z,11.00
2018-11-26T23:30:59.421Z,11.00
2018-11-26T23:33:28.727Z,11.00
2018-11-26T23:36:04.840Z,11.00
2018-11-26T23:38:34.725Z,11.10
2018-11-26T23:41:04.185Z,11.00
2018-11-26T23:43:33.574Z,10.70
2018-11-26T23:46:02.375Z,10.80
2018-11-26T23:48:31.106Z,10.90
2018-11-26T23:50:59.786Z,10.90
2018-11-26T23:53:29.088Z,10.90
2018-11-26T23:55:58.401Z,10.90
2018-11-26T23:58:27.785Z,10.90
